New Orleans, Louisiana
Traffic Map
Current Weather Conditions
New Orleans, Louisiana
Clear
Clear
50°
Feels Like: 50°
Wind Chill: 50° Ceiling: Unl
Heat Index: 50° Visibility: 10mi
Dew Point: 36° Wind: 22mph
Humidity: 59% Direction: 320° (NW)
Pressure: 30.34in Gusts: 0mph
Raw Report DataKNEW 110153Z 32019KT 10SM CLR 10/02 A3034 RMK AO2 SLP265 T01000022
Traffic Incident Summary
Active as of:
Severity:
Category:
InformationThere was an issue retrieving the traffic information for this location. Please try a different location or try again shortly.
Advertisements